• Join FlightAware (Why Join?)
  • Login
  • US Flag 
02:10AM EDT


 

Airport Tracker/Info


-or-


 

Live Flight TrackerFlight Track Log ✈ ASQ5311 ✈ 21-Apr-2014 ✈ KLGA - KBGR

Flight Track Log - Related Links

Times and Time Zones

All times are in EDT time to prevent confusion due to time zone crossing. See the ASQ5311 flight status page for this flight to view local times or setup timezone preferences in your user account.

Time Position Orientation Groundspeed Altitude Reporting Facility
EDT Latitude Longitude Course Direction KTS MPH feet Rate Location/Type
11:28PM 40.7569 -73.8286 37° Northeast 157 181 33,000  Level Boston Center
11:29PM 40.7814 -73.7692 61° Northeast 209 241 3,700 -13,260 Descending Boston Center
11:30PM 40.8478 -73.7281 25° Northeast 257 296 6,300 2,820 Climbing Boston Center
11:31PM 40.9194 -73.6800 27° Northeast 283 326 9,400 2,760 Climbing Boston Center
11:32PM 40.9900 -73.6247 31° Northeast 296 341 11,900 2,100 Climbing Boston Center
11:33PM 41.0725 -73.5289 41° Northeast 352 405 13,700 1,680 Climbing Boston Center
11:34PM 41.3305 -73.4195 37° Northeast  Level FlightAware Approximate
11:34PM 41.1547 -73.4342 41° Northeast 387 445 15,400  Level Boston Center
11:35PM 41.2403 -73.3350 41° Northeast 407 468 17,100 1,620 Climbing Boston Center
11:36PM 41.3328 -73.2258 42° Northeast 423 487 18,700 1,380 Climbing Boston Center
11:37PM 41.4125 -73.1353 40° Northeast 434 499 20,000 1,380 Climbing Boston Center
11:38PM 41.5061 -73.0250 41° Northeast 442 509 21,500 1,380 Climbing Boston Center
11:39PM 41.6044 -72.9103 41° Northeast 446 513 22,900 1,260 Climbing Boston Center
11:40PM 41.7003 -72.7953 42° Northeast 460 529 24,100 1,140 Climbing Boston Center
11:41PM 41.7972 -72.6800 42° Northeast 468 539 25,200 1,080 Climbing Boston Center
11:42PM 41.8953 -72.5614 42° Northeast 473 544 26,300 1,080 Climbing Boston Center
11:43PM 41.9919 -72.4456 42° Northeast 473 544 27,400 1,080 Climbing Boston Center
11:44PM 42.0906 -72.3278 42° Northeast 474 545 28,500 1,140 Climbing Boston Center
11:45PM 42.2072 -72.1856 42° Northeast 474 545 29,800 1,140 Climbing Boston Center
11:46PM 42.3039 -72.0667 42° Northeast 474 545 30,800 960 Climbing Boston Center
11:47PM 42.4008 -71.9489 42° Northeast 474 545 31,800 960 Climbing Boston Center
11:48PM 42.4983 -71.8289 42° Northeast 475 547 32,800 600 Climbing Boston Center
11:49PM 42.5958 -71.7103 42° Northeast 474 545 33,000 60 Climbing Boston Center
11:50PM 42.6944 -71.5872 43° Northeast 480 552 33,000  Level Boston Center
11:51PM 42.7856 -71.4744 42° Northeast 484 557 33,000  Level Boston Center
11:53PM 42.8858 -71.3489 43° Northeast 485 558 33,000 -180 Level Boston Center
11:54PM 42.9864 -71.2242 42° Northeast 486 559 32,700 -720 Descending Boston Center
11:55PM 43.0869 -71.0961 43° Northeast 490 564 31,600 -1,260 Descending Boston Center
11:56PM 43.1875 -70.9683 43° Northeast 490 564 30,200 -1,440 Descending Boston Center
11:57PM 43.2875 -70.8411 43° Northeast 490 564 28,700 -1,500 Descending Boston Center
11:58PM 43.3853 -70.7156 43° Northeast 484 557 27,200 -1,500 Descending Boston Center
11:59PM 43.4839 -70.5911 42° Northeast 474 545 25,700 -1,560 Descending Boston Center
12:00AM 43.5803 -70.4642 44° Northeast 474 545 24,100 -1,560 Descending Boston Center
12:01AM 43.6778 -70.3369 43° Northeast 477 549 22,600 -1,500 Descending Boston Center
12:02AM 43.7725 -70.2150 43° Northeast 468 539 21,100 -1,500 Descending Boston Center
12:03AM 43.8636 -70.0950 43° Northeast 456 525 19,600 -1,740 Descending Boston Center
12:04AM 43.9692 -69.9589 43° Northeast 444 511 17,700 -1,740 Descending Boston Center
12:05AM 44.0550 -69.8444 44° Northeast 431 496 16,200 -1,500 Descending Boston Center
12:06AM 44.1381 -69.7342 44° Northeast 416 479 14,700 -1,440 Descending Boston Center
12:07AM 44.2078 -69.6431 43° Northeast 412 474 13,400 -1,440 Descending Boston Center
12:08AM 44.2894 -69.5328 44° Northeast 409 471 11,900 -1,200 Descending Boston Center
12:09AM 44.3692 -69.4250 44° Northeast 405 466 11,000 -840 Descending Boston Center
12:10AM 44.4464 -69.3444 37° Northeast 344 396 10,300 -1,200 Descending Boston Center
12:11AM 44.5186 -69.2778 33° Northeast 311 358 8,700 -1,800 Descending Boston Center
12:12AM 44.5958 -69.2069 33° Northeast 281 323 6,700 -1,740 Descending Boston Center
12:13AM 44.6608 -69.1469 33° Northeast 281 323 5,200 -1,500 Descending Boston Center
12:14AM 44.7250 -69.0889 33° Northeast 280 322 3,700 -1,320 Descending Boston Center
12:15AM 44.7853 -69.0342 33° Northeast 266 306 2,600 -840 Descending Boston Center
12:16AM 44.8372 -68.9867 33° Northeast 234 269 2,100 -420 Descending Boston Center
12:17AM 44.8706 -68.9358 47° Northeast 192 221 1,800 -540 Descending Boston Center
12:18AM 44.8481 -68.8869 123° Southeast 165 190 1,100 -720 Descending Boston Center
12:19AM 44.8211 -68.8494 135° Southeast 148 170 400 -480 Descending Boston Center
12:20AM 44.7964 -68.8142 135° Southeast 145 167 200 -240 Descending Boston Center